Time;durP1;ratioP1;P1;durP2;ratioP2;P2;SDS_P1;SDS_P2;PMS_P1;PMS_P2;Temp;Humidity;BMP_temperature;BMP_pressure;BME280_temperature;BME280_humidity;BME280_pressure;Samples;Min_cycle;Max_cycle;Signal;HPM_P1;HPM_P2
2022/05/21 00:01:22;;;;;;;1.60;1.47;;;17.40;99.90;;;;;;10465731;28;20606;-70
2022/05/21 00:06:23;;;;;;;3.43;1.50;;;17.30;99.90;;;;;;10466910;28;20223;-70
2022/05/21 00:11:23;;;;;;;1.40;1.30;;;17.30;99.90;;;;;;10473545;28;20266;-70
2022/05/21 00:16:24;;;;;;;1.73;1.10;;;17.20;99.90;;;;;;10458617;28;20870;-70
2022/05/21 00:21:25;;;;;;;3.37;0.83;;;17.20;99.90;;;;;;10456110;28;20594;-70
2022/05/21 00:26:25;;;;;;;5.13;1.10;;;17.10;99.90;;;;;;10474010;28;20228;-71
2022/05/21 00:31:26;;;;;;;4.40;1.00;;;17.20;99.90;;;;;;10468310;28;20229;-70
2022/05/21 00:36:26;;;;;;;2.33;0.90;;;17.20;99.90;;;;;;10464477;28;20237;-70
2022/05/21 00:41:27;;;;;;;3.50;0.80;;;17.20;99.90;;;;;;10489077;28;20773;-71
2022/05/21 00:46:30;;;;;;;2.27;0.90;;;17.20;99.90;;;;;;10464296;28;20655;-71
2022/05/21 00:51:37;;;;;;;2.77;0.80;;;17.10;99.90;;;;;;10449535;28;20226;-71
2022/05/21 00:56:50;;;;;;;2.80;1.13;;;16.90;99.90;;;;;;10469071;28;20336;-71
2022/05/21 01:01:56;;;;;;;3.03;1.13;;;16.90;99.90;;;;;;10471139;28;20225;-71
2022/05/21 01:06:59;;;;;;;3.23;1.10;;;16.70;99.90;;;;;;10459245;28;20224;-71
2022/05/21 01:12:02;;;;;;;4.87;0.97;;;16.50;99.90;;;;;;10468252;28;20229;-71
2022/05/21 01:17:03;;;;;;;1.90;1.13;;;16.30;99.90;;;;;;10468991;28;20750;-71
2022/05/21 01:22:04;;;;;;;1.57;1.10;;;16.10;99.90;;;;;;10476576;28;20221;-70
2022/05/21 01:27:05;;;;;;;1.53;1.00;;;15.90;99.90;;;;;;10472610;28;20224;-71
2022/05/21 01:32:14;;;;;;;1.77;1.07;;;15.80;99.90;;;;;;10482164;28;20213;-70
2022/05/21 01:37:15;;;;;;;2.70;1.10;;;15.60;99.90;;;;;;10478991;28;20297;-71
2022/05/21 01:42:16;;;;;;;3.57;1.40;;;15.50;99.90;;;;;;10474094;28;20815;-70
2022/05/21 01:47:16;;;;;;;3.83;1.37;;;15.50;99.90;;;;;;10471531;28;20248;-71
2022/05/21 01:52:17;;;;;;;2.40;1.40;;;15.40;99.90;;;;;;10470509;28;20221;-71
2022/05/21 01:57:18;;;;;;;4.50;1.60;;;15.40;99.90;;;;;;10472674;28;20218;-71
2022/05/21 02:02:20;;;;;;;1.93;1.67;;;15.20;99.90;;;;;;10471441;28;20226;-70
2022/05/21 02:07:20;;;;;;;7.67;2.37;;;15.10;99.90;;;;;;10472381;28;20220;-70
2022/05/21 02:12:24;;;;;;;3.03;2.00;;;15.10;99.90;;;;;;10471981;28;20213;-72
2022/05/21 02:17:28;;;;;;;2.07;1.80;;;15.00;99.90;;;;;;10470603;28;20222;-71
2022/05/21 02:22:28;;;;;;;2.23;1.80;;;14.90;99.90;;;;;;10475259;28;20697;-72
2022/05/21 02:27:29;;;;;;;3.80;2.23;;;14.80;99.90;;;;;;10474347;28;20234;-71
2022/05/21 02:32:30;;;;;;;3.77;2.03;;;14.70;99.90;;;;;;10456963;28;20301;-70
2022/05/21 02:42:49;;;;;;;2.47;2.10;;;14.60;99.90;;;;;;10477841;28;20265;-71
2022/05/21 02:47:51;;;;;;;5.30;2.50;;;14.50;99.90;;;;;;10471045;28;20222;-70
2022/05/21 02:52:54;;;;;;;2.50;2.30;;;14.50;99.90;;;;;;10472599;28;20284;-71
2022/05/21 02:57:56;;;;;;;4.43;2.97;;;14.40;99.90;;;;;;10456851;28;20808;-71
2022/05/21 03:02:58;;;;;;;3.50;2.77;;;14.30;99.90;;;;;;10465243;28;20736;-71
2022/05/21 03:08:00;;;;;;;4.37;2.97;;;14.20;99.90;;;;;;10468632;28;20262;-71
2022/05/21 03:13:02;;;;;;;4.20;3.80;;;14.10;99.90;;;;;;10471408;28;20953;-71
2022/05/21 03:18:10;;;;;;;4.67;3.60;;;14.00;99.90;;;;;;10468933;28;20313;-71
2022/05/21 03:23:11;;;;;;;5.53;3.77;;;13.90;99.90;;;;;;10469087;28;20261;-71
2022/05/21 03:28:19;;;;;;;4.47;4.07;;;13.80;99.90;;;;;;10458571;28;20235;-71
2022/05/21 03:33:20;;;;;;;7.87;4.27;;;13.70;99.90;;;;;;10472863;28;20234;-71
2022/05/21 03:38:20;;;;;;;5.40;4.20;;;13.70;99.90;;;;;;10474002;28;20215;-71
2022/05/21 03:43:21;;;;;;;7.63;3.97;;;13.70;99.90;;;;;;10468314;28;20246;-71
2022/05/21 03:48:22;;;;;;;6.43;4.60;;;13.70;99.90;;;;;;10466835;28;20302;-70
2022/05/21 03:53:22;;;;;;;6.87;4.63;;;13.80;99.90;;;;;;10464062;28;20223;-71
2022/05/21 03:58:24;;;;;;;5.60;4.73;;;13.80;99.90;;;;;;10470129;28;20633;-71
2022/05/21 04:03:26;;;;;;;6.07;4.40;;;13.80;99.90;;;;;;10466691;28;20221;-71
2022/05/21 04:08:26;;;;;;;4.80;3.90;;;13.90;99.90;;;;;;10466475;28;20228;-70
2022/05/21 04:13:27;;;;;;;5.37;4.20;;;14.00;99.90;;;;;;10458631;28;20227;-71
2022/05/21 04:18:28;;;;;;;4.20;3.90;;;14.00;99.90;;;;;;10474251;28;20215;-71
2022/05/21 04:23:29;;;;;;;7.27;4.00;;;14.10;99.90;;;;;;10458595;28;20959;-70
2022/05/21 04:28:30;;;;;;;5.63;4.10;;;14.20;99.90;;;;;;10472359;28;20226;-71
2022/05/21 04:33:30;;;;;;;6.23;3.73;;;14.30;99.90;;;;;;10457231;28;20706;-71
2022/05/21 04:38:34;;;;;;;3.90;3.60;;;14.40;99.90;;;;;;10474151;28;20206;-71
2022/05/21 04:43:38;;;;;;;5.23;4.10;;;14.60;99.90;;;;;;10470058;28;20282;-71
2022/05/21 04:48:41;;;;;;;5.47;3.67;;;14.70;99.90;;;;;;10464687;28;20233;-70
2022/05/21 04:53:42;;;;;;;9.93;4.83;;;14.90;99.90;;;;;;10469662;28;20230;-71
2022/05/21 04:58:42;;;;;;;3.40;2.97;;;15.30;99.90;;;;;;10465792;28;20220;-71
2022/05/21 05:03:43;;;;;;;3.50;3.20;;;17.80;99.90;;;;;;10464740;28;20260;-71
2022/05/21 05:08:43;;;;;;;4.30;3.00;;;18.30;99.90;;;;;;10449785;28;20696;-72
2022/05/21 05:13:44;;;;;;;3.47;3.17;;;18.90;99.90;;;;;;10446081;28;20242;-70
2022/05/21 05:18:46;;;;;;;3.50;3.20;;;18.20;99.90;;;;;;10452682;28;20214;-70
2022/05/21 05:23:46;;;;;;;4.50;2.90;;;17.40;99.90;;;;;;10451636;28;20239;-70
2022/05/21 05:28:47;;;;;;;4.73;3.00;;;17.30;99.90;;;;;;10452040;28;20228;-70
2022/05/21 05:33:47;;;;;;;4.23;2.50;;;17.20;99.90;;;;;;10450839;28;20634;-71
2022/05/21 05:38:48;;;;;;;2.50;2.00;;;19.70;99.90;;;;;;10459688;28;20645;-70
2022/05/21 05:43:48;;;;;;;1.97;1.87;;;23.40;99.90;;;;;;10453067;28;20240;-71
2022/05/21 05:48:50;;;;;;;5.03;2.07;;;26.00;87.40;;;;;;10460502;28;20242;-70
2022/05/21 05:53:51;;;;;;;2.47;2.03;;;27.60;72.30;;;;;;10462978;28;20230;-70
2022/05/21 06:04:11;;;;;;;2.37;1.57;;;29.80;56.70;;;;;;10466968;28;20694;-70
2022/05/21 06:09:11;;;;;;;1.93;1.13;;;30.20;52.00;;;;;;10486322;28;20212;-71
2022/05/21 06:14:12;;;;;;;2.67;1.23;;;30.70;49.20;;;;;;10471122;28;20248;-70
2022/05/21 06:19:12;;;;;;;2.23;1.20;;;31.00;47.20;;;;;;10484777;28;20215;-69
2022/05/21 06:24:18;;;;;;;3.33;1.60;;;31.50;46.10;;;;;;10473646;28;20246;-69
2022/05/21 06:29:18;;;;;;;1.63;1.20;;;31.70;44.30;;;;;;10470859;28;20220;-70
2022/05/21 06:34:22;;;;;;;2.53;1.27;;;31.20;44.50;;;;;;10454446;28;20234;-70
2022/05/21 06:39:22;;;;;;;3.90;1.17;;;30.50;44.70;;;;;;10469889;28;20257;-70
2022/05/21 06:44:23;;;;;;;2.97;1.40;;;31.40;45.20;;;;;;10471014;28;20254;-70
2022/05/21 06:49:26;;;;;;;2.17;1.40;;;32.00;42.40;;;;;;10492443;28;20212;-71
2022/05/21 06:54:27;;;;;;;3.27;1.33;;;31.10;43.90;;;;;;10467652;28;20239;-70
2022/05/21 06:59:28;;;;;;;5.80;1.60;;;30.80;43.30;;;;;;10474950;28;20249;-73
2022/05/21 07:09:48;;;;;;;5.70;1.53;;;32.50;41.50;;;;;;10470500;28;20248;-69
2022/05/21 07:14:48;;;;;;;4.70;1.17;;;32.90;39.90;;;;;;10467454;28;20234;-70
2022/05/21 07:19:49;;;;;;;3.73;1.17;;;32.20;41.00;;;;;;10468414;28;20220;-69
2022/05/21 07:24:49;;;;;;;3.60;1.00;;;33.20;39.90;;;;;;10457072;28;20307;-70
2022/05/21 07:29:50;;;;;;;4.73;1.30;;;32.20;40.40;;;;;;10475045;28;20326;-70
2022/05/21 07:35:03;;;;;;;3.57;1.10;;;32.00;40.70;;;;;;10472376;28;20222;-70
2022/05/21 07:40:05;;;;;;;4.40;1.27;;;31.70;41.10;;;;;;10471004;28;20222;-69
2022/05/21 07:45:08;;;;;;;3.27;1.33;;;32.40;40.00;;;;;;10474633;28;20231;-70
2022/05/21 07:50:09;;;;;;;2.83;1.10;;;33.10;37.90;;;;;;10460755;28;20187;-70
2022/05/21 07:55:11;;;;;;;5.43;1.53;;;34.10;37.20;;;;;;10466635;28;20703;-70
2022/05/21 08:00:17;;;;;;;4.23;1.20;;;34.10;36.70;;;;;;10461788;28;20188;-70
2022/05/21 08:05:18;;;;;;;4.10;1.07;;;34.00;35.60;;;;;;10472374;28;20226;-70
2022/05/21 08:10:22;;;;;;;4.13;1.10;;;35.00;36.00;;;;;;10464276;28;20658;-70
2022/05/21 08:15:23;;;;;;;1.93;0.80;;;35.50;34.60;;;;;;10469260;28;20253;-70
2022/05/21 08:20:24;;;;;;;2.87;1.23;;;35.60;34.80;;;;;;10470744;28;20235;-68
2022/05/21 08:30:47;;;;;;;4.30;1.37;;;33.90;35.40;;;;;;10446734;28;20303;-69
2022/05/21 08:35:48;;;;;;;3.13;1.03;;;34.90;35.60;;;;;;10470096;28;20216;-70
2022/05/21 08:41:11;;;;;;;3.07;1.50;;;33.50;36.10;;;;;;10457277;28;20233;-69
2022/05/21 08:46:45;;;;;;;2.67;1.20;;;31.10;39.50;;;;;;10468558;28;20701;-70
2022/05/21 08:51:52;;;;;;;2.30;1.10;;;30.60;41.20;;;;;;10463109;28;20234;-70
2022/05/21 08:56:55;;;;;;;4.00;1.30;;;29.00;43.30;;;;;;10485372;28;20231;-70
2022/05/21 09:01:59;;;;;;;3.80;1.10;;;27.20;46.50;;;;;;10463213;28;20238;-71
2022/05/21 09:07:04;;;;;;;2.50;1.13;;;28.80;45.00;;;;;;10466440;28;20440;-69
2022/05/21 09:12:16;;;;;;;5.97;1.57;;;32.70;40.40;;;;;;10461402;28;20733;-70
2022/05/21 09:17:23;;;;;;;5.30;1.20;;;35.50;35.60;;;;;;10463279;28;20227;-70
2022/05/21 09:22:24;;;;;;;4.53;1.20;;;36.30;33.20;;;;;;10457673;28;20233;-70
2022/05/21 09:27:42;;;;;;;6.13;1.37;;;35.30;33.80;;;;;;10464000;28;20219;-69
2022/05/21 09:32:48;;;;;;;5.87;1.50;;;35.40;34.90;;;;;;10440983;28;20232;-69
2022/05/21 09:37:49;;;;;;;4.10;1.57;;;33.80;35.00;;;;;;10472006;28;20342;-69
2022/05/21 09:48:09;;;;;;;2.93;1.40;;;32.20;39.20;;;;;;10478303;28;20222;-70
2022/05/21 09:53:33;;;;;;;6.20;1.50;;;34.30;35.60;;;;;;10470065;28;20227;-70
2022/05/21 09:58:39;;;;;;;5.53;1.20;;;35.80;32.90;;;;;;10465709;28;20220;-70
2022/05/21 10:03:47;;;;;;;2.87;1.23;;;35.40;33.70;;;;;;10471942;28;20223;-69
2022/05/21 10:14:51;;;;;;;3.37;1.40;;;37.40;30.00;;;;;;10461553;28;20228;-69
2022/05/21 10:20:34;;;;;;;1.87;0.90;;;36.40;31.30;;;;;;10427309;28;20314;-69
2022/05/21 10:26:02;;;;;;;2.73;1.50;;;35.70;33.30;;;;;;10372543;28;20634;-70
2022/05/21 10:31:17;;;;;;;3.63;1.50;;;35.20;33.20;;;;;;10474202;28;20216;-69
2022/05/21 10:36:29;;;;;;;1.97;1.20;;;35.20;32.10;;;;;;10454562;28;20781;-70
2022/05/21 10:41:36;;;;;;;2.30;1.33;;;36.70;31.30;;;;;;10473669;28;20278;-70
2022/05/21 10:46:45;;;;;;;2.63;1.00;;;37.60;29.60;;;;;;10477753;28;20228;-69
2022/05/21 10:52:21;;;;;;;3.90;1.37;;;37.60;29.60;;;;;;10466885;28;20310;-70
2022/05/21 10:57:34;;;;;;;3.00;1.53;;;37.00;29.90;;;;;;10477159;28;20238;-69
2022/05/21 11:03:19;;;;;;;4.27;1.30;;;35.20;32.30;;;;;;10451336;28;20219;-69
2022/05/21 11:08:50;;;;;;;3.53;1.67;;;35.70;32.40;;;;;;10430421;28;20220;-69
2022/05/21 11:13:59;;;;;;;3.23;1.30;;;34.00;33.00;;;;;;10458349;28;20241;-70
2022/05/21 11:19:09;;;;;;;6.80;1.93;;;31.90;35.90;;;;;;10470525;28;20223;-70
2022/05/21 11:24:34;;;;;;;5.20;1.53;;;30.40;38.00;;;;;;10464604;28;20374;-69
2022/05/21 11:29:45;;;;;;;4.33;1.50;;;30.20;39.10;;;;;;10456102;28;20215;-69
2022/05/21 11:40:49;;;;;;;2.47;1.27;;;29.50;40.70;;;;;;10467882;28;20674;-69
2022/05/21 11:46:00;;;;;;;2.67;1.60;;;29.20;40.90;;;;;;10463996;28;20230;-70
2022/05/21 11:51:24;;;;;;;4.97;1.43;;;28.10;42.20;;;;;;10465335;28;20230;-69
2022/05/21 11:57:01;;;;;;;2.27;1.10;;;28.00;43.00;;;;;;10475808;28;20231;-71
2022/05/21 12:02:20;;;;;;;5.53;1.27;;;27.60;41.60;;;;;;10463657;28;20587;-69
2022/05/21 12:07:49;;;;;;;2.07;1.00;;;27.10;43.50;;;;;;10471849;28;20235;-69
2022/05/21 12:13:13;;;;;;;3.70;1.33;;;26.80;44.40;;;;;;10463206;28;20280;-69
2022/05/21 12:18:40;;;;;;;4.00;1.30;;;26.40;43.70;;;;;;10469393;28;20259;-70
2022/05/21 12:23:51;;;;;;;3.30;1.37;;;26.10;44.80;;;;;;10451843;28;20213;-69
2022/05/21 12:29:11;;;;;;;3.57;1.10;;;26.10;44.40;;;;;;10472100;28;20704;-70
2022/05/21 12:34:49;;;;;;;2.07;1.00;;;25.90;44.50;;;;;;10478356;28;20604;-69
2022/05/21 12:39:57;;;;;;;2.90;1.03;;;25.60;44.30;;;;;;10462452;28;20261;-69
2022/05/21 12:44:57;;;;;;;2.30;1.13;;;25.40;45.30;;;;;;10467417;28;20255;-69
2022/05/21 12:50:01;;;;;;;2.70;1.10;;;25.40;45.40;;;;;;10466115;28;20247;-69
2022/05/21 12:55:26;;;;;;;4.03;1.63;;;25.70;44.00;;;;;;10462730;28;20238;-70
2022/05/21 13:00:31;;;;;;;3.33;1.20;;;25.80;44.40;;;;;;10465770;28;20219;-68
2022/05/21 13:05:36;;;;;;;2.50;1.10;;;25.60;44.10;;;;;;10457832;28;20299;-69
2022/05/21 13:10:40;;;;;;;3.97;1.30;;;25.50;44.00;;;;;;10470920;28;20212;-70
2022/05/21 13:15:45;;;;;;;3.30;1.47;;;25.50;44.60;;;;;;10473871;28;20224;-69
2022/05/21 13:21:42;;;;;;;1.73;1.30;;;25.80;43.80;;;;;;10474532;28;20226;-70
2022/05/21 13:26:43;;;;;;;2.90;1.20;;;26.20;44.20;;;;;;10425196;28;20221;-70
2022/05/21 13:31:44;;;;;;;6.00;1.37;;;26.10;43.50;;;;;;10474408;28;20601;-70
2022/05/21 13:36:51;;;;;;;3.20;1.00;;;26.30;43.80;;;;;;10473137;28;20234;-70
2022/05/21 13:41:54;;;;;;;4.20;1.00;;;26.40;43.60;;;;;;10464076;28;20375;-70
2022/05/21 13:46:59;;;;;;;4.60;1.30;;;26.60;43.20;;;;;;10475163;28;20361;-70
2022/05/21 13:52:00;;;;;;;3.13;1.20;;;26.70;43.10;;;;;;10480167;28;20229;-70
2022/05/21 13:57:28;;;;;;;3.10;1.13;;;26.40;43.50;;;;;;10499301;28;20234;-70
2022/05/21 14:02:31;;;;;;;3.97;1.30;;;26.00;44.30;;;;;;10457278;28;20224;-69
2022/05/21 14:07:46;;;;;;;3.57;2.10;;;25.60;44.90;;;;;;10462756;28;20614;-70
2022/05/21 14:12:52;;;;;;;4.07;1.37;;;25.40;44.60;;;;;;10474080;28;20223;-69
2022/05/21 14:17:59;;;;;;;3.73;1.30;;;25.00;45.20;;;;;;10465271;28;20226;-69
2022/05/21 14:23:26;;;;;;;3.50;1.27;;;25.00;45.30;;;;;;10473111;28;20257;-70
2022/05/21 14:28:27;;;;;;;1.53;0.87;;;24.80;45.60;;;;;;10470153;28;20222;-68
2022/05/21 14:33:29;;;;;;;3.40;1.83;;;25.10;46.00;;;;;;10462876;28;20284;-70
2022/05/21 14:38:30;;;;;;;2.90;1.30;;;25.60;45.80;;;;;;10473601;28;20222;-70
2022/05/21 14:43:41;;;;;;;4.37;1.70;;;25.70;44.90;;;;;;10469747;28;20296;-70
2022/05/21 14:48:41;;;;;;;3.10;1.40;;;25.40;45.00;;;;;;10466462;28;20678;-70
2022/05/21 14:53:47;;;;;;;1.20;1.10;;;25.20;45.80;;;;;;10471634;28;20232;-69
2022/05/21 14:58:47;;;;;;;3.40;1.23;;;25.10;45.90;;;;;;10475363;28;20223;-69
2022/05/21 15:03:48;;;;;;;1.53;0.97;;;24.90;45.80;;;;;;10492930;28;20222;-69
2022/05/21 15:08:51;;;;;;;5.50;1.30;;;24.60;46.40;;;;;;10475098;28;20277;-70
2022/05/21 15:13:53;;;;;;;2.80;1.30;;;24.40;47.80;;;;;;10468581;28;20234;-69
2022/05/21 15:18:53;;;;;;;3.23;1.10;;;24.40;47.40;;;;;;10471142;28;20215;-69
2022/05/21 15:23:58;;;;;;;4.07;1.60;;;24.40;47.50;;;;;;10483242;28;20219;-70
2022/05/21 15:28:58;;;;;;;2.97;1.33;;;24.50;47.20;;;;;;10469486;28;20220;-70
2022/05/21 15:34:00;;;;;;;2.57;1.00;;;24.50;48.10;;;;;;10461349;28;20550;-70
2022/05/21 15:39:00;;;;;;;2.90;1.10;;;24.70;47.40;;;;;;10469047;28;20228;-70
2022/05/21 15:44:01;;;;;;;3.33;1.60;;;24.70;47.40;;;;;;10461232;28;20315;-70
2022/05/21 15:49:02;;;;;;;3.03;1.17;;;24.70;46.10;;;;;;10470847;28;20303;-70
2022/05/21 15:54:02;;;;;;;2.20;1.27;;;24.70;46.70;;;;;;10468395;28;20223;-70
2022/05/21 15:59:03;;;;;;;2.50;1.00;;;24.60;47.20;;;;;;10471086;28;20272;-69
2022/05/21 16:04:04;;;;;;;2.97;1.03;;;24.50;47.70;;;;;;10465818;28;20219;-70
2022/05/21 16:09:06;;;;;;;1.97;1.10;;;24.50;46.80;;;;;;10463400;28;20227;-70
2022/05/21 16:14:06;;;;;;;5.57;1.17;;;24.50;46.90;;;;;;10466231;28;20224;-69
2022/05/21 16:19:07;;;;;;;3.77;0.97;;;24.30;47.40;;;;;;10469355;28;20710;-69
2022/05/21 16:24:07;;;;;;;3.03;1.60;;;24.20;48.50;;;;;;10465957;28;20224;-69
2022/05/21 16:29:08;;;;;;;1.97;1.10;;;24.10;47.50;;;;;;10470367;28;20272;-68
2022/05/21 16:34:09;;;;;;;1.50;1.00;;;23.90;48.20;;;;;;10470531;28;20231;-69
2022/05/21 16:39:09;;;;;;;2.90;1.00;;;23.60;48.00;;;;;;10479856;28;20222;-69
2022/05/21 16:44:10;;;;;;;1.83;1.30;;;23.60;48.40;;;;;;10465283;28;20698;-69
2022/05/21 16:49:11;;;;;;;1.03;0.70;;;23.50;49.30;;;;;;10459324;28;20224;-69
2022/05/21 16:54:12;;;;;;;3.50;1.20;;;23.90;48.50;;;;;;10471076;28;20284;-69
2022/05/21 16:59:13;;;;;;;4.17;1.50;;;23.70;49.00;;;;;;10466782;28;20277;-70
2022/05/21 17:04:15;;;;;;;2.13;1.33;;;23.50;49.10;;;;;;10470575;28;20694;-69
2022/05/21 17:09:16;;;;;;;4.50;1.10;;;23.40;49.70;;;;;;10461305;28;20251;-69
2022/05/21 17:14:17;;;;;;;1.93;1.10;;;23.30;50.80;;;;;;10465207;28;20220;-69
2022/05/21 17:19:18;;;;;;;4.60;1.30;;;23.30;50.70;;;;;;10466264;28;20262;-69
2022/05/21 17:24:19;;;;;;;2.17;1.27;;;23.30;50.80;;;;;;10473033;28;20243;-69
2022/05/21 17:34:39;;;;;;;2.93;1.30;;;23.30;51.20;;;;;;10456800;28;20314;-69
2022/05/21 17:39:39;;;;;;;2.60;1.03;;;23.30;51.10;;;;;;10461810;28;20857;-69
2022/05/21 17:44:40;;;;;;;4.33;1.17;;;23.20;50.90;;;;;;10464103;28;20224;-69
2022/05/21 17:49:41;;;;;;;4.80;1.20;;;23.10;51.00;;;;;;10471087;28;20305;-69
2022/05/21 17:54:41;;;;;;;2.00;1.30;;;23.00;52.20;;;;;;10462925;28;20219;-70
2022/05/21 17:59:42;;;;;;;2.53;1.30;;;23.00;52.00;;;;;;10460230;28;20667;-69
2022/05/21 18:04:42;;;;;;;3.93;1.30;;;22.80;52.00;;;;;;10465165;28;20264;-69
2022/05/21 18:09:44;;;;;;;2.23;1.20;;;22.80;52.60;;;;;;10467897;28;20226;-69
2022/05/21 18:14:44;;;;;;;3.03;1.13;;;22.70;51.90;;;;;;10470557;28;20227;-69
2022/05/21 18:19:45;;;;;;;2.20;1.13;;;22.50;52.80;;;;;;10468631;28;20300;-69
2022/05/21 18:24:46;;;;;;;2.13;1.10;;;22.40;53.30;;;;;;10477384;28;20219;-68
2022/05/21 18:29:47;;;;;;;2.90;1.07;;;22.20;53.10;;;;;;10472226;28;20621;-68
2022/05/21 18:34:51;;;;;;;4.10;1.30;;;21.90;53.40;;;;;;10476252;28;20219;-69
2022/05/21 18:39:51;;;;;;;3.23;0.77;;;21.80;55.10;;;;;;10472284;28;20219;-69
2022/05/21 18:44:54;;;;;;;4.00;1.33;;;21.70;54.20;;;;;;10466287;28;20599;-69
2022/05/21 18:49:54;;;;;;;2.87;1.17;;;21.60;54.60;;;;;;10476768;28;20224;-69
2022/05/21 18:54:55;;;;;;;4.03;1.30;;;21.40;54.30;;;;;;10469354;28;20875;-70
2022/05/21 18:59:55;;;;;;;4.23;1.10;;;21.20;55.50;;;;;;10469085;28;20215;-69
2022/05/21 19:04:59;;;;;;;3.50;1.10;;;21.00;56.20;;;;;;10472079;28;20221;-70
2022/05/21 19:10:00;;;;;;;3.23;1.20;;;20.90;57.00;;;;;;10471989;28;20296;-70
2022/05/21 19:15:01;;;;;;;2.70;1.03;;;20.70;58.00;;;;;;10478349;28;20314;-69
2022/05/21 19:20:02;;;;;;;4.17;1.73;;;20.50;59.20;;;;;;10469952;28;20211;-68
2022/05/21 19:25:03;;;;;;;2.73;1.50;;;20.20;60.70;;;;;;10466531;28;20208;-69
2022/05/21 19:30:04;;;;;;;4.67;2.07;;;20.00;62.80;;;;;;10471369;28;20215;-70
2022/05/21 19:35:09;;;;;;;7.73;3.90;;;19.80;62.20;;;;;;10463063;28;20224;-70
2022/05/21 19:45:35;;;;;;;6.53;4.10;;;19.70;62.40;;;;;;10475462;28;20233;-69
2022/05/21 19:50:36;;;;;;;4.10;2.53;;;19.50;63.20;;;;;;10450132;28;20219;-70
2022/05/21 19:55:37;;;;;;;3.40;2.60;;;19.40;63.30;;;;;;10472588;28;20232;-69
2022/05/21 20:00:40;;;;;;;4.90;1.87;;;19.30;64.40;;;;;;10466484;28;20636;-68
2022/05/21 20:05:41;;;;;;;4.93;1.60;;;19.20;65.20;;;;;;10455766;28;20762;-70
2022/05/21 20:10:42;;;;;;;3.33;1.80;;;19.30;65.40;;;;;;10470425;28;20222;-69
2022/05/21 20:15:43;;;;;;;2.00;1.33;;;19.30;66.10;;;;;;10472068;28;20227;-70
2022/05/21 20:20:44;;;;;;;2.83;1.97;;;19.20;67.30;;;;;;10472205;28;20279;-70
2022/05/21 20:25:46;;;;;;;5.20;2.10;;;19.00;68.20;;;;;;10468177;28;20321;-70
2022/05/21 20:30:47;;;;;;;5.20;2.13;;;19.00;68.40;;;;;;10471193;28;20272;-69
2022/05/21 20:35:47;;;;;;;4.47;1.70;;;18.90;68.70;;;;;;10458708;28;20271;-70
2022/05/21 20:40:53;;;;;;;2.17;1.50;;;18.80;68.10;;;;;;10470796;28;20226;-69
2022/05/21 20:45:55;;;;;;;3.67;1.60;;;18.80;68.80;;;;;;10474873;28;20230;-71
2022/05/21 20:50:56;;;;;;;6.17;1.70;;;18.80;68.40;;;;;;10468603;28;20213;-71
2022/05/21 20:55:56;;;;;;;3.77;1.40;;;18.80;68.40;;;;;;10472389;28;20226;-69
2022/05/21 21:00:57;;;;;;;3.37;1.70;;;18.80;68.70;;;;;;10476659;28;20709;-70
2022/05/21 21:05:58;;;;;;;3.00;1.70;;;18.80;68.40;;;;;;10466078;28;20546;-72
2022/05/21 21:10:58;;;;;;;2.97;1.40;;;18.80;68.40;;;;;;10471915;28;20219;-70
2022/05/21 21:15:59;;;;;;;3.97;2.00;;;18.80;68.20;;;;;;10458600;28;20726;-71
2022/05/21 21:21:00;;;;;;;4.20;1.60;;;18.60;69.00;;;;;;10468448;28;20218;-70
2022/05/21 21:26:00;;;;;;;2.30;1.60;;;18.50;69.20;;;;;;10471884;28;20352;-70
2022/05/21 21:31:01;;;;;;;3.60;2.10;;;18.50;70.10;;;;;;10463102;28;20568;-70
2022/05/21 21:36:02;;;;;;;9.43;1.87;;;18.30;70.90;;;;;;10467868;28;20737;-69
2022/05/21 21:41:02;;;;;;;16.63;2.10;;;18.20;71.50;;;;;;10480609;28;20223;-71
2022/05/21 21:46:03;;;;;;;3.07;1.63;;;18.10;72.50;;;;;;10478421;28;20304;-70
2022/05/21 21:51:04;;;;;;;3.80;1.63;;;17.90;73.30;;;;;;10473943;28;20229;-70
2022/05/21 21:56:05;;;;;;;3.17;1.57;;;17.90;73.80;;;;;;10477770;28;20308;-70
2022/05/21 22:01:25;;;;;;;2.00;1.37;;;17.80;74.40;;;;;;10482728;28;20806;-71
2022/05/21 22:06:26;;;;;;;4.80;1.80;;;17.70;75.30;;;;;;10481841;28;20276;-69
2022/05/21 22:11:28;;;;;;;4.43;1.63;;;17.50;77.50;;;;;;10481295;28;20752;-70
2022/05/21 22:16:29;;;;;;;3.33;1.70;;;17.40;80.30;;;;;;10473885;28;20272;-71
2022/05/21 22:21:31;;;;;;;5.40;1.97;;;17.20;81.00;;;;;;10469058;28;20284;-69
2022/05/21 22:26:32;;;;;;;4.80;1.93;;;17.10;82.00;;;;;;10479816;28;20232;-70
2022/05/21 22:31:32;;;;;;;4.87;1.83;;;17.00;83.20;;;;;;10470593;28;20214;-69
2022/05/21 22:36:35;;;;;;;4.23;2.43;;;17.00;83.10;;;;;;10467266;28;20230;-69
2022/05/21 22:41:36;;;;;;;3.87;2.30;;;17.00;83.70;;;;;;10480471;28;20236;-71
2022/05/21 22:46:39;;;;;;;3.90;2.40;;;16.90;84.60;;;;;;10473456;28;20233;-71
2022/05/21 22:51:40;;;;;;;4.23;2.47;;;16.80;86.20;;;;;;10468025;28;20233;-71
2022/05/21 22:56:41;;;;;;;4.20;2.33;;;16.80;87.30;;;;;;10473610;28;20242;-70
2022/05/21 23:01:41;;;;;;;4.37;2.13;;;16.80;88.90;;;;;;10472203;28;20702;-69
2022/05/21 23:06:43;;;;;;;4.33;2.23;;;16.60;90.50;;;;;;10464091;28;20228;-71
2022/05/21 23:11:43;;;;;;;3.10;2.20;;;16.40;91.70;;;;;;10483981;28;20573;-69
2022/05/21 23:27:23;;;;;;;3.70;2.30;;;16.20;99.90;;;;;;10478663;28;20216;-70
2022/05/21 23:32:24;;;;;;;2.87;2.27;;;16.10;99.90;;;;;;10471594;28;20226;-70
2022/05/21 23:37:25;;;;;;;5.40;2.47;;;16.00;99.90;;;;;;10470829;28;20690;-70
2022/05/21 23:42:25;;;;;;;6.33;2.60;;;16.00;99.90;;;;;;10471137;28;20223;-70
2022/05/21 23:47:26;;;;;;;4.70;2.30;;;15.90;99.90;;;;;;10470957;28;20705;-70
2022/05/21 23:52:29;;;;;;;9.47;2.57;;;15.80;99.90;;;;;;10478412;28;20216;-70
2022/05/21 23:57:30;;;;;;;6.30;2.80;;;15.70;99.90;;;;;;10467830;28;20234;-69
